Time;durP1;ratioP1;P1;durP2;ratioP2;P2;SDS_P1;SDS_P2;PMS_P1;PMS_P2;Temp;Humidity;BMP_temperature;BMP_pressure;BME280_temperature;BME280_humidity;BME280_pressure;Samples;Min_cycle;Max_cycle;Signal;HPM_P1;HPM_P2
2023/08/31 00:33:21;;;;;;;11.00;9.07;;;16.10;1.00;;;;;;6248514;22;21526;-92
2023/08/31 00:39:43;;;;;;;7.97;6.90;;;;;;;;;;6258394;23;20446;-93
2023/08/31 00:42:43;;;;;;;8.17;7.37;;;16.10;99.90;;;;;;6263506;23;20407;-93
2023/08/31 01:13:10;;;;;;;5.60;5.10;;;15.90;99.90;;;;;;6263225;23;20451;-92
2023/08/31 01:19:13;;;;;;;;;;;;;;;;;;;;;
2023/08/31 01:25:22;;;;;;;4.57;4.10;;;;;;;;;;6282935;22;20424;-88
2023/08/31 01:31:45;;;;;;;4.27;3.63;;;15.80;99.90;;;;;;6248806;23;20450;-88
2023/08/31 01:44:49;;;;;;;;;;;;;;;;;;;;;
2023/08/31 01:50:54;;;;;;;4.93;4.40;;;;;;;;;;6240401;22;20452;-90
2023/08/31 02:05:33;;;;;;;4.67;4.27;;;;;;;;;;6186881;22;20389;-90
2023/08/31 02:08:10;;;;;;;4.53;4.20;;;;;;;;;;6253443;23;20416;-90
2023/08/31 03:48:36;;;;;;;3.30;3.10;;;14.50;99.90;;;;;;6131651;23;20412;-92
2023/08/31 04:47:43;;;;;;;6.73;5.00;;;14.20;99.90;;;;;;6009337;23;20462;-93
2023/08/31 04:53:28;;;;;;;;;;;;;;;;;;;;;
2023/08/31 04:56:00;;;;;;;6.27;5.50;;;14.20;99.90;;;;;;6268089;22;20425;-93
2023/08/31 05:04:08;;;;;;;6.73;6.07;;;;;;;;;;6257640;22;20434;-92
2023/08/31 05:06:43;;;;;;;7.40;6.70;;;;;;;;;;6255505;23;20812;-93
2023/08/31 05:12:58;;;;;;;;;;;;;;;;;;;;;
2023/08/31 05:16:06;;;;;;;7.90;6.30;;;14.30;99.90;;;;;;6176240;22;20501;-92
2023/08/31 05:18:51;;;;;;;14.33;7.67;;;14.30;99.90;;;;;;6274859;22;20397;-89
2023/08/31 05:24:42;;;;;;;6.83;6.20;;;;;;;;;;6089150;23;21074;-87
2023/08/31 05:30:08;;;;;;;9.00;6.83;;;;;;;;;;6258918;23;20944;-88
2023/08/31 05:33:06;;;;;;;8.07;6.97;;;;;;;;;;6253246;23;20437;-88
2023/08/31 05:38:56;;;;;;;7.90;7.20;;;14.30;99.90;;;;;;6258814;23;20739;-92
2023/08/31 05:41:34;;;;;;;7.50;6.80;;;;;;;;;;6254754;23;20401;-91
2023/08/31 05:44:09;;;;;;;8.60;7.70;;;;;;;;;;6253383;22;20429;-91
2023/08/31 05:52:16;;;;;;;9.70;8.53;;;;;;;;;;6184052;23;20520;-91
2023/08/31 05:55:04;;;;;;;10.13;7.53;;;;;;;;;;6257419;22;20475;-91
2023/08/31 05:57:51;;;;;;;8.20;7.40;;;;;;;;;;6257620;23;20464;-91
2023/08/31 06:00:57;;;;;;;11.20;8.10;;;14.80;99.90;;;;;;6267287;23;20382;-90
2023/08/31 06:03:32;;;;;;;9.60;7.80;;;;;;;;;;6146211;23;20417;-90
2023/08/31 06:06:19;;;;;;;8.83;7.93;;;14.70;99.90;;;;;;6243416;23;20498;-90
2023/08/31 06:08:57;;;;;;;8.40;7.60;;;;;;;;;;6260195;23;20413;-91
2023/08/31 06:11:31;;;;;;;8.60;7.23;;;;;;;;;;6254937;23;20763;-91
2023/08/31 06:14:06;;;;;;;9.63;7.90;;;;;;;;;;6252697;22;20467;-92
2023/08/31 06:16:46;;;;;;;7.77;7.07;;;;;;;;;;6253546;23;20388;-91
2023/08/31 06:19:59;;;;;;;;;;;;;;;;;;;;;
2023/08/31 06:22:47;;;;;;;10.83;9.83;;;14.70;99.90;;;;;;6102646;23;20921;-90
2023/08/31 06:32:15;;;;;;;10.93;8.27;;;;;;;;;;6137557;23;20455;-90
2023/08/31 06:38:22;;;;;;;15.97;13.03;;;15.00;29.20;;;;;;6240227;23;20413;-90
2023/08/31 06:41:09;;;;;;;8.33;7.63;;;;;;;;;;6236277;23;20414;-90
2023/08/31 06:46:33;;;;;;;9.97;8.97;;;;;;;;;;6252390;23;20456;-90
2023/08/31 06:49:27;;;;;;;8.13;7.33;;;15.20;1.00;;;;;;6252253;23;20409;-91
2023/08/31 06:52:28;;;;;;;8.90;7.10;;;;;;;;;;6252999;23;20506;-91
2023/08/31 06:55:14;;;;;;;8.80;7.90;;;;;;;;;;6274328;22;20488;-89
2023/08/31 06:57:54;;;;;;;9.80;7.63;;;;;;;;;;6274329;22;20466;-90
2023/08/31 07:09:41;;;;;;;;;;;;;;;;;;;;;
2023/08/31 07:12:59;;;;;;;;;;;;;;;;;;;;;
2023/08/31 07:15:47;;;;;;;9.40;6.70;;;;;;;;;;6228983;23;20444;-91
2023/08/31 07:19:10;;;;;;;;;;;;;;;;;;;;;
2023/08/31 07:21:55;;;;;;;7.70;7.00;;;;;;;;;;6226433;23;20412;-91
2023/08/31 07:24:34;;;;;;;9.00;7.57;;;;;;;;;;6255270;22;20433;-91
2023/08/31 07:30:33;;;;;;;15.80;7.07;;;;;;;;;;6247415;23;20775;-92
2023/08/31 07:33:15;;;;;;;7.23;6.57;;;;;;;;;;6253423;23;21002;-91
2023/08/31 07:39:31;;;;;;;11.03;6.90;;;15.10;36.10;;;;;;6244101;23;20408;-90
2023/08/31 07:51:25;;;;;;;7.67;6.97;;;;;;;;;;6251195;23;20397;-91
2023/08/31 08:00:27;;;;;;;8.77;7.87;;;15.60;1.00;;;;;;6133452;23;20467;-91
2023/08/31 08:09:35;;;;;;;7.13;4.83;;;;;;;;;;6186010;23;20399;-91
2023/08/31 08:15:40;;;;;;;6.60;6.00;;;;;;;;;;6252473;23;20484;-91
2023/08/31 08:18:37;;;;;;;6.30;5.70;;;15.50;1.00;;;;;;6271442;22;20405;-89
2023/08/31 08:21:21;;;;;;;7.43;5.80;;;;;;;;;;6273941;22;20410;-90
2023/08/31 08:27:20;;;;;;;6.23;5.30;;;;;;;;;;6246098;22;20387;-91
2023/08/31 08:33:49;;;;;;;5.97;4.80;;;16.30;99.90;;;;;;6266404;22;20443;-90
2023/08/31 08:43:06;;;;;;;5.00;4.60;;;16.80;99.90;;;;;;6243716;23;20970;-92
2023/08/31 08:46:22;;;;;;;6.67;4.10;;;17.00;99.90;;;;;;6261978;22;20441;-91
2023/08/31 08:49:30;;;;;;;4.13;3.77;;;17.10;99.90;;;;;;6269367;23;20470;-92
2023/08/31 08:52:17;;;;;;;6.60;4.20;;;;;;;;;;6268032;23;20416;-91
2023/08/31 08:55:18;;;;;;;4.13;3.73;;;17.50;1.00;;;;;;6263361;22;20463;-92
2023/08/31 08:58:09;;;;;;;10.90;4.30;;;;;;;;;;6262906;23;20419;-91
2023/08/31 09:03:31;;;;;;;4.80;3.87;;;17.40;1.00;;;;;;6263697;22;20389;-89
2023/08/31 09:09:13;;;;;;;2.20;2.00;;;;;;;;;;6271319;22;20412;-89
2023/08/31 09:12:05;;;;;;;7.93;2.77;;;;;;;;;;6274986;22;20396;-90
2023/08/31 09:17:52;;;;;;;6.03;2.60;;;16.90;1.00;;;;;;6251661;22;20468;-90
2023/08/31 09:23:56;;;;;;;3.73;3.10;;;;;;;;;;6174987;23;20458;-91
2023/08/31 09:26:48;;;;;;;8.50;2.57;;;16.70;28.30;;;;;;6171774;23;20411;-90
2023/08/31 09:32:18;;;;;;;3.43;2.80;;;16.60;99.90;;;;;;6261128;23;20401;-92
2023/08/31 09:35:02;;;;;;;;;;;;;;;;;;;;;
2023/08/31 09:41:22;;;;;;;3.80;3.33;;;15.90;99.90;;;;;;6267385;22;20717;-90
2023/08/31 09:44:43;;;;;;;4.93;3.10;;;15.70;99.90;;;;;;6267510;22;20443;-90
2023/08/31 09:47:25;;;;;;;3.00;2.70;;;15.70;99.90;;;;;;6261806;22;20417;-91
2023/08/31 09:50:12;;;;;;;5.43;3.63;;;15.70;99.90;;;;;;6259183;23;20928;-91
2023/08/31 10:02:20;;;;;;;4.40;3.83;;;;;;;;;;6254231;23;20439;-91
2023/08/31 10:05:25;;;;;;;2.97;2.60;;;17.00;1.00;;;;;;6262891;22;20432;-91
2023/08/31 10:07:57;;;;;;;3.67;2.50;;;;;;;;;;6224979;23;20414;-92
2023/08/31 10:10:45;;;;;;;3.70;2.20;;;17.30;18.30;;;;;;6267762;22;20386;-92
2023/08/31 10:13:23;;;;;;;4.33;2.73;;;17.20;1.00;;;;;;6270055;22;20464;-91
2023/08/31 10:16:19;;;;;;;2.40;2.20;;;17.30;1.00;;;;;;6271061;22;20453;-91
2023/08/31 10:18:59;;;;;;;3.73;2.77;;;;;;;;;;6269119;23;20430;-91
2023/08/31 10:22:01;;;;;;;4.80;3.10;;;17.60;1.00;;;;;;6270122;22;20495;-92
2023/08/31 10:25:06;;;;;;;1.90;1.67;;;17.60;1.00;;;;;;6269275;22;20447;-92
2023/08/31 10:27:45;;;;;;;1.50;1.40;;;;;;;;;;6268263;23;20389;-90
2023/08/31 10:36:37;;;;;;;2.23;1.60;;;;;;;;;;6107155;23;20418;-90
2023/08/31 10:42:11;;;;;;;10.13;2.20;;;;;;;;;;6181997;23;20418;-89
2023/08/31 10:58:36;;;;;;;3.50;2.93;;;14.20;2.80;;;;;;5959212;24;20493;-88
2023/08/31 11:37:20;;;;;;;5.17;3.23;;;15.60;1.00;;;;;;6028143;23;20429;-87
2023/08/31 12:12:42;;;;;;;4.73;2.83;;;15.90;1.00;;;;;;6284135;22;20437;-87
2023/08/31 12:15:55;;;;;;;4.73;3.73;;;;;;;;;;6131294;22;20455;-89
2023/08/31 12:28:51;;;;;;;;;;;;;;;;;;;;;
2023/08/31 12:38:50;;;;;;;3.60;2.53;;;15.90;1.00;;;;;;6056938;23;20726;-88
2023/08/31 14:15:58;;;;;;;9.60;6.77;;;15.40;1.00;;;;;;6229971;22;20485;-91
2023/08/31 14:32:25;;;;;;;;;;;;;;;;;;;;;
2023/08/31 14:44:55;;;;;;;3.93;2.30;;;;;;;;;;6290924;22;20439;-88
2023/08/31 14:47:46;;;;;;;1.80;1.70;;;;;;;;;;6299462;22;20414;-89
2023/08/31 14:51:08;;;;;;;1.70;1.40;;;16.40;1.00;;;;;;6290212;22;20408;-90
2023/08/31 15:00:04;;;;;;;4.23;1.33;;;;;;;;;;6192056;23;20376;-89
2023/08/31 15:02:47;;;;;;;1.33;1.23;;;;;;;;;;6275563;22;20438;-88
2023/08/31 15:06:17;;;;;;;1.87;1.47;;;16.90;1.00;;;;;;6285097;22;20484;-89
2023/08/31 15:18:39;;;;;;;6.77;2.10;;;;;;;;;;6239916;23;20409;-88
2023/08/31 15:21:24;;;;;;;5.13;1.97;;;;;;;;;;6255274;23;20444;-88
2023/08/31 15:26:56;;;;;;;6.17;3.63;;;;;;;;;;6247989;22;20495;-88
2023/08/31 15:29:27;;;;;;;3.03;2.77;;;17.10;1.00;;;;;;6251345;23;20409;-87
2023/08/31 15:32:00;;;;;;;2.67;2.47;;;17.10;1.00;;;;;;6253123;23;20938;-87
2023/08/31 15:34:28;;;;;;;4.00;2.40;;;;;;;;;;6254636;23;20448;-87
2023/08/31 15:36:55;;;;;;;5.23;4.73;;;;;;;;;;6253475;22;20421;-88
2023/08/31 15:39:23;;;;;;;3.10;2.80;;;;;;;;;;6253728;23;20415;-88
2023/08/31 15:41:57;;;;;;;2.80;2.13;;;;;;;;;;6253217;23;20401;-87
2023/08/31 15:44:28;;;;;;;3.53;2.47;;;16.90;1.00;;;;;;6253203;23;20481;-87
2023/08/31 15:47:00;;;;;;;1.70;1.60;;;;;;;;;;6258049;22;20447;-88
2023/08/31 15:49:35;;;;;;;1.97;1.87;;;17.10;1.00;;;;;;6256174;23;20802;-88
2023/08/31 15:52:07;;;;;;;2.30;2.00;;;;;;;;;;6254051;23;20388;-88
2023/08/31 15:54:40;;;;;;;3.07;1.83;;;;;;;;;;6257334;23;20487;-87
2023/08/31 15:57:08;;;;;;;1.80;1.70;;;;;;;;;;6252667;22;20440;-87
2023/08/31 15:59:39;;;;;;;1.83;1.63;;;;;;;;;;6253375;23;20410;-88
2023/08/31 16:02:08;;;;;;;1.40;1.30;;;;;;;;;;6253977;23;20397;-88
2023/08/31 16:04:37;;;;;;;1.50;1.40;;;;;;;;;;6254163;23;20412;-87
2023/08/31 16:07:08;;;;;;;6.57;1.40;;;16.70;1.00;;;;;;6255408;22;20500;-88
2023/08/31 16:09:36;;;;;;;1.70;1.60;;;;;;;;;;6265721;23;20416;-87
2023/08/31 16:12:06;;;;;;;1.43;1.33;;;16.40;1.00;;;;;;6267209;23;20425;-87
2023/08/31 16:14:49;;;;;;;2.37;1.73;;;;;;;;;;6257082;23;20512;-87
2023/08/31 16:17:20;;;;;;;1.27;1.17;;;;;;;;;;6251023;22;20482;-87
2023/08/31 16:19:50;;;;;;;1.63;1.33;;;;;;;;;;6252086;23;20405;-87
2023/08/31 16:22:18;;;;;;;1.23;1.13;;;;;;;;;;6250912;23;20469;-87
2023/08/31 16:24:48;;;;;;;1.97;1.87;;;15.90;1.00;;;;;;6257687;23;20408;-88
2023/08/31 16:27:15;;;;;;;2.80;2.00;;;;;;;;;;6270577;22;20444;-88
2023/08/31 16:29:46;;;;;;;3.87;1.83;;;15.90;1.00;;;;;;6274153;22;20396;-86
2023/08/31 16:32:15;;;;;;;2.27;2.10;;;;;;;;;;6272305;22;20422;-87
2023/08/31 16:34:45;;;;;;;2.40;1.83;;;;;;;;;;6271184;23;20442;-87
2023/08/31 16:37:12;;;;;;;2.13;1.70;;;;;;;;;;6272229;22;20439;-87
2023/08/31 16:39:40;;;;;;;1.47;1.37;;;;;;;;;;6273324;22;20396;-87
2023/08/31 16:42:21;;;;;;;2.27;2.00;;;;;;;;;;6272956;22;20400;-87
2023/08/31 16:44:50;;;;;;;2.70;2.33;;;;;;;;;;6271431;23;20420;-87
2023/08/31 16:47:20;;;;;;;5.40;3.20;;;;;;;;;;6262124;22;20451;-89
2023/08/31 16:50:05;;;;;;;5.30;2.67;;;16.00;1.00;;;;;;6260943;23;20416;-88
2023/08/31 16:52:39;;;;;;;4.13;2.17;;;;;;;;;;6259448;23;20705;-88
2023/08/31 16:55:11;;;;;;;2.90;2.20;;;16.20;99.90;;;;;;6253575;22;20490;-86
2023/08/31 16:57:42;;;;;;;3.00;2.50;;;;;;;;;;6253637;23;20416;-88
2023/08/31 17:00:23;;;;;;;6.50;4.33;;;;;;;;;;6253072;23;20437;-87
2023/08/31 17:03:02;;;;;;;5.00;4.03;;;;;;;;;;6253421;23;20392;-88
2023/08/31 17:05:33;;;;;;;5.70;3.57;;;;;;;;;;6252570;22;20433;-88
2023/08/31 17:08:16;;;;;;;2.63;2.43;;;;;;;;;;6262033;23;20413;-87
2023/08/31 17:10:58;;;;;;;6.90;3.53;;;;;;;;;;6275498;22;20402;-86
2023/08/31 17:13:28;;;;;;;3.90;3.50;;;;;;;;;;6275631;22;20402;-87
2023/08/31 17:16:01;;;;;;;3.40;3.10;;;;;;;;;;6274591;22;20430;-86
2023/08/31 17:18:39;;;;;;;2.87;2.63;;;14.70;99.90;;;;;;6264205;23;20747;-87
2023/08/31 17:24:27;;;;;;;3.57;2.03;;;14.70;99.90;;;;;;6242344;22;20496;-87
2023/08/31 17:26:54;;;;;;;2.47;2.00;;;14.70;99.90;;;;;;6251937;22;20952;-87
2023/08/31 17:29:24;;;;;;;2.60;2.27;;;;;;;;;;6253128;23;20975;-87
2023/08/31 17:31:52;;;;;;;2.50;2.30;;;;;;;;;;6251975;23;20782;-87
2023/08/31 17:34:19;;;;;;;1.97;1.87;;;;;;;;;;6251207;23;20449;-87
2023/08/31 17:36:46;;;;;;;3.30;2.27;;;;;;;;;;6252142;22;20448;-87
2023/08/31 17:39:13;;;;;;;2.87;2.60;;;;;;;;;;6253403;23;20406;-87
2023/08/31 17:41:42;;;;;;;4.40;3.03;;;;;;;;;;6272001;22;20391;-86
2023/08/31 17:44:10;;;;;;;3.10;2.80;;;;;;;;;;6264953;22;20405;-87
2023/08/31 17:46:37;;;;;;;2.40;2.00;;;;;;;;;;6275526;22;20419;-85
2023/08/31 17:49:05;;;;;;;2.13;1.93;;;14.20;99.90;;;;;;6275129;22;20402;-83
2023/08/31 17:51:32;;;;;;;3.13;2.20;;;;;;;;;;6275552;22;20393;-84
2023/08/31 17:54:05;;;;;;;2.43;2.23;;;;;;;;;;6274170;22;20473;-86
2023/08/31 17:56:33;;;;;;;3.63;2.40;;;;;;;;;;6274942;22;20433;-85
2023/08/31 17:59:17;;;;;;;4.40;2.73;;;;;;;;;;6272406;22;20427;-87
2023/08/31 18:01:50;;;;;;;3.77;2.00;;;;;;;;;;6265426;23;20889;-87
2023/08/31 18:04:27;;;;;;;1.90;1.63;;;;;;;;;;6266488;23;20404;-87
2023/08/31 18:06:56;;;;;;;2.40;2.20;;;;;;;;;;6269857;22;20431;-88
2023/08/31 18:09:36;;;;;;;4.17;2.90;;;;;;;;;;6261658;23;20464;-88
2023/08/31 18:12:15;;;;;;;3.23;2.90;;;;;;;;;;6262148;23;20398;-88
2023/08/31 18:14:45;;;;;;;2.97;2.20;;;13.90;1.00;;;;;;6268283;23;20444;-88
2023/08/31 18:17:22;;;;;;;2.70;1.83;;;;;;;;;;6267049;22;20425;-88
2023/08/31 18:19:55;;;;;;;2.33;1.90;;;13.70;1.00;;;;;;6267031;23;20421;-88
2023/08/31 18:25:06;;;;;;;4.40;1.97;;;;;;;;;;6249870;22;20861;-86
2023/08/31 18:27:34;;;;;;;2.30;1.50;;;;;;;;;;6251690;23;20406;-87
2023/08/31 18:30:13;;;;;;;2.70;2.40;;;;;;;;;;6258122;23;20405;-87
2023/08/31 18:32:44;;;;;;;5.43;2.60;;;;;;;;;;6255600;22;20455;-87
2023/08/31 18:35:12;;;;;;;3.20;3.00;;;;;;;;;;6253569;22;20417;-86
2023/08/31 18:37:39;;;;;;;3.67;3.37;;;;;;;;;;6255035;23;20484;-87
2023/08/31 18:40:10;;;;;;;2.87;2.33;;;;;;;;;;6254284;23;20406;-87
2023/08/31 18:42:39;;;;;;;3.43;2.07;;;;;;;;;;6254989;23;20463;-86
2023/08/31 18:45:10;;;;;;;3.60;2.33;;;;;;;;;;6264043;22;20386;-86
2023/08/31 18:47:38;;;;;;;2.57;2.37;;;13.90;99.90;;;;;;6268611;23;20409;-87
2023/08/31 18:50:07;;;;;;;5.30;3.43;;;13.80;1.00;;;;;;6266536;23;20395;-88
2023/08/31 18:52:34;;;;;;;4.60;2.77;;;;;;;;;;6270478;23;20398;-87
2023/08/31 18:55:06;;;;;;;3.17;2.10;;;;;;;;;;6274176;22;20424;-86
2023/08/31 18:57:40;;;;;;;2.90;2.70;;;;;;;;;;6262089;22;20505;-87
2023/08/31 19:00:22;;;;;;;3.93;2.70;;;;;;;;;;6257017;23;20871;-88
2023/08/31 19:02:50;;;;;;;3.30;2.20;;;;;;;;;;6257069;23;20390;-87
2023/08/31 19:05:17;;;;;;;3.07;2.33;;;13.40;99.90;;;;;;6254525;22;20412;-87
2023/08/31 19:07:52;;;;;;;2.37;2.17;;;13.60;1.00;;;;;;6253733;23;20416;-87
2023/08/31 19:10:21;;;;;;;2.53;2.33;;;;;;;;;;6254752;23;20397;-87
2023/08/31 19:12:48;;;;;;;2.30;2.10;;;13.50;99.90;;;;;;6269323;22;20394;-86
2023/08/31 19:15:17;;;;;;;4.13;2.83;;;13.50;1.00;;;;;;6274508;22;20433;-85
2023/08/31 19:17:45;;;;;;;3.53;3.23;;;;;;;;;;6273219;23;20421;-86
2023/08/31 19:20:14;;;;;;;2.80;2.60;;;;;;;;;;6263965;22;20378;-85
2023/08/31 19:22:46;;;;;;;5.27;4.27;;;;;;;;;;6266545;22;20417;-87
2023/08/31 19:28:10;;;;;;;8.40;5.50;;;13.60;1.00;;;;;;6251617;23;20393;-86
2023/08/31 19:30:42;;;;;;;9.73;4.70;;;;;;;;;;6256525;23;20413;-86
2023/08/31 19:36:49;;;;;;;4.73;3.67;;;;;;;;;;6251079;22;20449;-87
2023/08/31 19:39:39;;;;;;;3.57;3.27;;;;;;;;;;6252307;23;20421;-87
2023/08/31 19:42:16;;;;;;;5.43;3.50;;;;;;;;;;6251328;23;20414;-87
2023/08/31 19:44:50;;;;;;;3.40;3.10;;;;;;;;;;6254867;23;20354;-87
2023/08/31 19:47:19;;;;;;;3.73;3.37;;;;;;;;;;6255737;22;20468;-87
2023/08/31 19:49:49;;;;;;;3.23;2.83;;;;;;;;;;6251863;23;20425;-87
2023/08/31 19:52:31;;;;;;;3.60;3.30;;;13.50;1.00;;;;;;6254077;23;20436;-89
2023/08/31 19:54:59;;;;;;;3.23;3.03;;;;;;;;;;6251905;23;20369;-88
2023/08/31 19:57:26;;;;;;;3.40;2.70;;;;;;;;;;6251192;22;20993;-88
2023/08/31 19:59:59;;;;;;;14.10;10.30;;;;;;;;;;6254190;23;20505;-88
2023/08/31 20:02:28;;;;;;;3.27;2.97;;;13.50;99.90;;;;;;6254813;23;20417;-88
2023/08/31 20:04:55;;;;;;;3.67;3.37;;;13.50;99.90;;;;;;6256334;23;20452;-88
2023/08/31 20:07:22;;;;;;;3.37;2.70;;;;;;;;;;6255961;22;20761;-87
2023/08/31 20:09:49;;;;;;;3.87;3.40;;;13.90;99.90;;;;;;6255211;23;20401;-87
2023/08/31 20:12:17;;;;;;;5.97;4.40;;;;;;;;;;6254704;23;20413;-87
2023/08/31 20:14:44;;;;;;;3.57;3.07;;;13.60;94.00;;;;;;6252509;23;20405;-87
2023/08/31 20:17:11;;;;;;;5.37;3.23;;;;;;;;;;6250124;22;21050;-87
2023/08/31 20:19:43;;;;;;;4.00;3.43;;;13.60;99.90;;;;;;6252982;23;20432;-87
2023/08/31 20:22:11;;;;;;;4.33;3.80;;;;;;;;;;6270639;23;20429;-87
2023/08/31 20:24:41;;;;;;;8.60;4.47;;;;;;;;;;6272082;23;20473;-87
2023/08/31 20:27:09;;;;;;;3.67;2.93;;;;;;;;;;6265572;22;20492;-87
2023/08/31 20:29:39;;;;;;;2.87;2.63;;;13.50;1.00;;;;;;6265545;23;20401;-87
2023/08/31 20:32:07;;;;;;;4.23;3.47;;;;;;;;;;6261878;23;20460;-88
2023/08/31 20:34:34;;;;;;;4.93;3.20;;;;;;;;;;6261380;23;20393;-88
2023/08/31 20:37:04;;;;;;;3.10;2.80;;;13.50;1.00;;;;;;6254841;22;20441;-88
2023/08/31 20:39:37;;;;;;;6.70;3.00;;;13.50;1.00;;;;;;6253154;23;20405;-87
2023/08/31 20:42:09;;;;;;;3.00;2.70;;;;;;;;;;6257366;23;20497;-88
2023/08/31 20:44:39;;;;;;;2.90;2.63;;;13.50;1.00;;;;;;6265292;23;20435;-87
2023/08/31 20:47:11;;;;;;;6.17;3.53;;;;;;;;;;6274750;22;20394;-87
2023/08/31 20:49:50;;;;;;;6.40;4.53;;;;;;;;;;6257556;23;20895;-87
2023/08/31 20:52:18;;;;;;;5.20;3.63;;;;;;;;;;6251933;23;20437;-87
2023/08/31 20:54:57;;;;;;;;;;;;;;;;;;;;;
2023/08/31 20:57:46;;;;;;;;;;;;;;;;;;;;;
2023/08/31 21:00:26;;;;;;;4.47;3.97;;;13.50;1.00;;;;;;6276051;22;20457;-87
2023/08/31 21:03:03;;;;;;;3.80;3.50;;;;;;;;;;6270053;22;20393;-87
2023/08/31 21:06:20;;;;;;;3.13;2.90;;;13.50;7.90;;;;;;6271819;22;20943;-88
2023/08/31 21:12:06;;;;;;;11.13;2.80;;;;;;;;;;6264578;22;20426;-87
2023/08/31 21:14:38;;;;;;;4.07;3.50;;;;;;;;;;6275731;22;20405;-86
2023/08/31 21:17:14;;;;;;;8.00;3.90;;;;;;;;;;6275363;22;20504;-86
2023/08/31 21:19:48;;;;;;;5.77;3.57;;;;;;;;;;6272531;22;20402;-87
2023/08/31 21:22:31;;;;;;;3.50;3.20;;;;;;;;;;6260949;23;20396;-88
2023/08/31 21:25:35;;;;;;;3.67;2.83;;;13.40;99.90;;;;;;6273616;22;20473;-87
2023/08/31 21:34:17;;;;;;;5.73;3.73;;;;;;;;;;6235701;23;20382;-89
2023/08/31 21:36:56;;;;;;;3.80;3.03;;;13.40;99.90;;;;;;6252275;22;20504;-89
2023/08/31 21:39:28;;;;;;;3.73;3.07;;;;;;;;;;6252060;23;20402;-89
2023/08/31 21:42:10;;;;;;;3.60;3.30;;;;;;;;;;6252096;23;20405;-88
2023/08/31 21:44:47;;;;;;;4.13;3.00;;;;;;;;;;6251577;23;20488;-88
2023/08/31 21:47:28;;;;;;;3.70;3.40;;;;;;;;;;6251015;22;20962;-88
2023/08/31 21:50:08;;;;;;;2.80;2.60;;;;;;;;;;6251137;23;20497;-88
2023/08/31 21:55:18;;;;;;;2.20;2.00;;;;;;;;;;6249903;22;20429;-87
2023/08/31 21:57:55;;;;;;;2.53;2.33;;;;;;;;;;6254286;23;20469;-88
2023/08/31 22:00:38;;;;;;;3.20;2.90;;;;;;;;;;6253699;23;20798;-87
2023/08/31 22:03:09;;;;;;;3.70;2.60;;;;;;;;;;6257121;23;20463;-87
2023/08/31 22:05:49;;;;;;;2.93;2.70;;;;;;;;;;6253399;22;20425;-87
2023/08/31 22:08:30;;;;;;;3.30;2.07;;;;;;;;;;6251694;23;20416;-88
2023/08/31 22:11:17;;;;;;;4.43;2.43;;;;;;;;;;6250741;23;20409;-87
2023/08/31 22:14:10;;;;;;;2.60;2.40;;;;;;;;;;6252037;23;20409;-87
2023/08/31 22:16:46;;;;;;;3.40;3.00;;;;;;;;;;6264239;22;20462;-87
2023/08/31 22:19:16;;;;;;;2.83;2.40;;;;;;;;;;6274371;22;20393;-87
2023/08/31 22:21:53;;;;;;;3.83;2.37;;;;;;;;;;6266492;23;20492;-89
2023/08/31 22:24:34;;;;;;;3.93;2.47;;;;;;;;;;6262857;23;20435;-87
2023/08/31 22:27:13;;;;;;;2.60;2.40;;;;;;;;;;6270002;22;20440;-88
2023/08/31 22:29:49;;;;;;;2.37;2.17;;;;;;;;;;6271181;23;20449;-87
2023/08/31 22:32:19;;;;;;;2.57;2.37;;;;;;;;;;6270223;23;20840;-87
2023/08/31 22:37:41;;;;;;;2.83;2.30;;;13.40;1.00;;;;;;6261466;23;20418;-88
2023/08/31 22:40:15;;;;;;;2.53;2.13;;;13.40;99.90;;;;;;6259929;23;20393;-88
2023/08/31 22:42:50;;;;;;;2.73;2.47;;;13.30;1.00;;;;;;6260636;23;20412;-88
2023/08/31 22:45:33;;;;;;;3.37;3.10;;;;;;;;;;6258305;22;20399;-86
2023/08/31 22:48:13;;;;;;;4.70;3.10;;;13.30;1.00;;;;;;6263313;23;20417;-88
2023/08/31 22:50:47;;;;;;;4.13;2.40;;;;;;;;;;6272048;22;20477;-89
2023/08/31 22:53:22;;;;;;;2.90;2.47;;;;;;;;;;6272108;22;20362;-88
2023/08/31 22:56:14;;;;;;;3.70;2.50;;;;;;;;;;6262805;22;20433;-88
2023/08/31 22:58:44;;;;;;;2.47;2.27;;;;;;;;;;6252005;23;20381;-88
2023/08/31 23:01:13;;;;;;;2.73;2.50;;;;;;;;;;6256557;23;20401;-89
2023/08/31 23:03:42;;;;;;;2.83;2.60;;;;;;;;;;6252059;23;20767;-88
2023/08/31 23:06:18;;;;;;;3.63;2.63;;;13.20;99.90;;;;;;6259650;22;20486;-87
2023/08/31 23:08:48;;;;;;;2.40;2.20;;;;;;;;;;6260446;23;20405;-88
2023/08/31 23:11:22;;;;;;;3.03;2.70;;;;;;;;;;6252524;23;20444;-87
2023/08/31 23:14:02;;;;;;;1.97;1.83;;;;;;;;;;6249992;23;20381;-87
2023/08/31 23:16:41;;;;;;;2.57;2.37;;;;;;;;;;6255370;22;20509;-87
2023/08/31 23:19:22;;;;;;;3.80;2.80;;;;;;;;;;6264664;23;20407;-87
2023/08/31 23:21:57;;;;;;;2.67;2.47;;;;;;;;;;6259965;23;20402;-88
2023/08/31 23:24:27;;;;;;;3.70;2.67;;;;;;;;;;6253230;23;20413;-88
2023/08/31 23:26:58;;;;;;;4.57;3.70;;;;;;;;;;6251552;22;20437;-89
2023/08/31 23:29:28;;;;;;;6.00;3.30;;;;;;;;;;6249122;23;20422;-88
2023/08/31 23:32:11;;;;;;;4.70;4.23;;;;;;;;;;6250235;23;20789;-87
2023/08/31 23:34:41;;;;;;;5.73;4.60;;;;;;;;;;6248677;23;20385;-88
2023/08/31 23:37:09;;;;;;;3.17;2.97;;;;;;;;;;6249465;22;20997;-88
2023/08/31 23:39:38;;;;;;;4.50;2.87;;;;;;;;;;6248389;23;20413;-88
2023/08/31 23:42:08;;;;;;;2.73;2.53;;;;;;;;;;6248161;23;20504;-88
2023/08/31 23:44:35;;;;;;;3.60;2.70;;;;;;;;;;6248154;23;20414;-88
2023/08/31 23:47:04;;;;;;;4.00;2.80;;;;;;;;;;6248670;22;20770;-88
2023/08/31 23:49:31;;;;;;;2.73;2.50;;;;;;;;;;6249245;23;20887;-88
2023/08/31 23:51:58;;;;;;;2.70;2.53;;;;;;;;;;6249930;23;20492;-89
2023/08/31 23:54:26;;;;;;;2.73;2.53;;;;;;;;;;6248879;23;20409;-87
2023/08/31 23:56:53;;;;;;;4.13;3.00;;;;;;;;;;6248338;22;20491;-88
2023/08/31 23:59:22;;;;;;;3.63;2.80;;;;;;;;;;6248767;23;20920;-88
